Time;durP1;ratioP1;P1;durP2;ratioP2;P2;SDS_P1;SDS_P2;PMS_P1;PMS_P2;Temp;Humidity;BMP_temperature;BMP_pressure;BME280_temperature;BME280_humidity;BME280_pressure;Samples;Min_cycle;Max_cycle;Signal;HPM_P1;HPM_P2
2022/06/16 02:46:26;;;;;;;2.70;0.40;;;20.30;74.70;;;;;;5832044;23;94017;-79
2022/06/16 02:49:11;;;;;;;4.93;0.35;;;20.40;75.20;;;;;;4888089;28;92508;-79
2022/06/16 02:51:44;;;;;;;4.60;0.40;;;20.40;72.80;;;;;;4890055;28;93216;-79
2022/06/16 02:54:35;;;;;;;3.40;0.40;;;20.40;72.90;;;;;;4897142;28;92836;-80
2022/06/16 02:57:07;;;;;;;2.67;0.43;;;20.40;73.90;;;;;;4869681;28;92425;-79
2022/06/16 02:59:37;;;;;;;6.13;0.45;;;20.30;74.20;;;;;;4897946;28;92041;-79
2022/06/16 03:02:07;;;;;;;3.97;0.60;;;20.30;74.40;;;;;;4897679;28;92238;-79
2022/06/16 03:04:36;;;;;;;1.80;0.40;;;20.30;72.00;;;;;;4896802;28;92099;-79
2022/06/16 03:07:02;;;;;;;3.50;0.65;;;20.30;73.80;;;;;;4897824;28;92796;-79
2022/06/16 03:09:28;;;;;;;4.82;0.50;;;20.40;75.30;;;;;;4897273;28;92097;-79
2022/06/16 03:11:54;;;;;;;3.47;0.50;;;20.40;74.80;;;;;;4899994;28;92480;-79
2022/06/16 03:14:19;;;;;;;5.28;0.60;;;20.40;73.10;;;;;;4901056;28;92112;-79
2022/06/16 03:16:45;;;;;;;3.42;0.43;;;20.40;74.60;;;;;;4899941;28;93195;-78
2022/06/16 03:19:11;;;;;;;2.90;0.55;;;20.40;72.30;;;;;;4891403;28;92093;-78
2022/06/16 03:21:37;;;;;;;2.38;0.38;;;20.40;72.90;;;;;;4900874;28;92072;-79
2022/06/16 03:24:03;;;;;;;4.65;0.50;;;20.30;72.00;;;;;;4901378;28;92339;-79
2022/06/16 03:26:29;;;;;;;5.28;0.43;;;20.30;72.40;;;;;;4894006;28;92019;-79
2022/06/16 03:28:55;;;;;;;2.42;0.45;;;20.20;75.10;;;;;;4902053;28;91686;-78
2022/06/16 03:31:21;;;;;;;5.13;0.60;;;20.20;74.10;;;;;;4901056;28;94880;-79
2022/06/16 03:33:47;;;;;;;3.67;0.70;;;20.10;74.10;;;;;;4902485;28;92348;-79
2022/06/16 03:36:13;;;;;;;3.00;0.32;;;20.10;73.60;;;;;;4901868;28;91894;-80
2022/06/16 03:41:05;;;;;;;2.13;0.30;;;20.20;73.00;;;;;;4898240;28;94037;-79
2022/06/16 03:43:30;;;;;;;5.47;0.55;;;20.30;72.10;;;;;;4901168;28;93709;-79
2022/06/16 03:45:56;;;;;;;2.50;0.75;;;20.40;72.20;;;;;;4901095;28;92619;-79
2022/06/16 03:48:22;;;;;;;2.38;0.35;;;20.60;71.50;;;;;;4900696;28;91788;-79
2022/06/16 03:50:48;;;;;;;3.53;0.65;;;20.60;73.20;;;;;;4900190;28;92336;-80
2022/06/16 03:53:13;;;;;;;3.55;0.52;;;20.60;76.60;;;;;;4898270;28;92085;-79
2022/06/16 03:55:39;;;;;;;3.55;0.40;;;20.60;74.30;;;;;;4900276;28;92052;-79
2022/06/16 03:58:05;;;;;;;3.05;0.70;;;20.50;76.20;;;;;;4893057;28;91593;-79
2022/06/16 04:00:32;;;;;;;4.28;0.82;;;20.40;75.30;;;;;;4897103;28;92460;-79
2022/06/16 04:05:42;;;;;;;3.67;0.82;;;20.30;79.00;;;;;;4894281;28;93084;-79
2022/06/16 04:08:10;;;;;;;3.83;0.73;;;20.20;78.80;;;;;;4899936;28;91945;-80
2022/06/16 04:10:36;;;;;;;4.35;1.00;;;20.10;80.40;;;;;;4899055;28;92103;-79
2022/06/16 04:13:02;;;;;;;3.70;1.02;;;20.30;79.40;;;;;;4900756;28;92268;-81
2022/06/16 04:15:29;;;;;;;2.85;0.82;;;20.50;79.70;;;;;;4900687;28;92306;-79
2022/06/16 04:17:54;;;;;;;2.97;0.68;;;21.00;76.20;;;;;;4900556;28;92135;-79
2022/06/16 04:20:20;;;;;;;3.78;0.88;;;21.50;73.10;;;;;;4900015;28;93246;-79
2022/06/16 04:22:50;;;;;;;3.05;0.63;;;21.90;71.10;;;;;;4901431;28;91442;-80
2022/06/16 04:25:17;;;;;;;3.55;0.45;;;22.20;66.00;;;;;;4902074;28;91950;-79
2022/06/16 04:27:44;;;;;;;2.53;0.52;;;22.30;68.80;;;;;;4900791;28;92000;-80
2022/06/16 04:30:10;;;;;;;4.40;0.47;;;22.60;66.80;;;;;;4900697;28;93383;-80
2022/06/16 04:32:36;;;;;;;4.03;0.60;;;22.80;66.20;;;;;;4900479;28;92990;-80
2022/06/16 04:35:03;;;;;;;4.82;0.60;;;22.60;65.60;;;;;;4902115;28;92672;-82
2022/06/16 04:37:29;;;;;;;4.80;1.00;;;22.30;70.60;;;;;;4903382;28;91566;-85
2022/06/16 04:39:55;;;;;;;4.07;0.40;;;22.00;69.30;;;;;;4905275;28;91948;-82
2022/06/16 04:42:20;;;;;;;5.00;0.80;;;21.80;70.10;;;;;;4909702;28;92182;-82
2022/06/16 04:44:46;;;;;;;2.88;0.60;;;21.30;74.00;;;;;;4909379;28;91893;-82
2022/06/16 04:47:12;;;;;;;6.88;0.80;;;21.00;76.20;;;;;;4907897;28;91173;-83
2022/06/16 04:49:38;;;;;;;3.92;0.82;;;20.90;77.90;;;;;;4906492;28;92651;-84
2022/06/16 04:52:05;;;;;;;3.60;0.80;;;20.80;77.60;;;;;;4907944;28;92878;-83
2022/06/16 04:54:31;;;;;;;7.55;0.88;;;20.80;77.70;;;;;;4908006;28;93114;-82
2022/06/16 04:56:57;;;;;;;3.85;0.82;;;20.80;77.50;;;;;;4907445;28;92002;-83
2022/06/16 04:59:23;;;;;;;6.50;0.77;;;20.90;76.90;;;;;;4908523;28;92204;-82
2022/06/16 05:01:49;;;;;;;5.50;0.63;;;20.80;76.50;;;;;;4906328;28;92021;-83
2022/06/16 05:04:15;;;;;;;3.17;0.57;;;20.90;75.50;;;;;;4905324;28;91955;-83
2022/06/16 05:06:40;;;;;;;7.22;0.93;;;20.90;77.30;;;;;;4905210;28;92218;-84
2022/06/16 05:09:06;;;;;;;4.07;0.68;;;20.80;79.30;;;;;;4902886;28;91994;-82
2022/06/16 05:11:32;;;;;;;4.43;0.85;;;20.60;81.10;;;;;;4901924;28;92178;-83
2022/06/16 05:14:00;;;;;;;4.57;0.90;;;20.30;85.70;;;;;;4906739;28;92446;-83
2022/06/16 05:16:29;;;;;;;3.50;0.68;;;20.10;87.40;;;;;;4905848;28;92295;-84
2022/06/16 05:18:55;;;;;;;3.88;0.68;;;19.80;89.50;;;;;;4903928;28;93219;-84
2022/06/16 05:21:22;;;;;;;5.72;0.60;;;19.60;90.10;;;;;;4905067;28;92893;-82
2022/06/16 05:23:47;;;;;;;4.38;0.52;;;19.70;88.90;;;;;;4900534;28;92146;-82
2022/06/16 05:26:13;;;;;;;6.60;0.63;;;19.80;89.20;;;;;;4885928;28;91982;-83
2022/06/16 05:28:39;;;;;;;2.55;0.65;;;20.00;88.50;;;;;;4900459;28;92427;-84
2022/06/16 05:31:05;;;;;;;6.60;0.63;;;20.10;86.70;;;;;;4896119;28;92031;-83
2022/06/16 05:33:31;;;;;;;3.50;0.50;;;20.30;86.20;;;;;;4905674;28;91997;-85
2022/06/16 05:36:03;;;;;;;2.25;0.50;;;20.30;86.30;;;;;;4906676;28;91112;-84
2022/06/16 05:38:29;;;;;;;5.38;1.08;;;20.50;85.10;;;;;;4902711;28;91985;-85
2022/06/16 05:41:07;;;;;;;4.40;0.73;;;21.20;84.10;;;;;;4897958;28;92288;-83
2022/06/16 05:43:33;;;;;;;4.32;0.60;;;21.50;82.60;;;;;;4906631;28;92940;-84
2022/06/16 05:45:59;;;;;;;3.88;0.90;;;21.30;81.90;;;;;;4906338;28;92002;-84
2022/06/16 05:48:25;;;;;;;4.70;0.73;;;21.30;82.80;;;;;;4905857;28;92120;-83
2022/06/16 05:50:52;;;;;;;4.13;0.60;;;21.20;82.10;;;;;;4903006;28;93048;-83
2022/06/16 05:53:18;;;;;;;4.65;0.73;;;21.00;81.50;;;;;;4896737;28;92167;-84
2022/06/16 05:55:44;;;;;;;2.63;0.52;;;21.00;82.00;;;;;;4909192;28;92057;-83
2022/06/16 05:58:10;;;;;;;3.00;0.50;;;20.90;81.40;;;;;;4909060;28;91624;-83
2022/06/16 06:00:35;;;;;;;2.53;0.57;;;21.10;78.20;;;;;;4908844;28;91884;-83
2022/06/16 06:03:01;;;;;;;2.97;0.40;;;21.20;78.40;;;;;;4902761;28;91984;-83
2022/06/16 06:05:28;;;;;;;5.63;0.90;;;21.30;78.30;;;;;;4901669;28;93660;-82
2022/06/16 06:16:37;;;;;;;5.38;0.50;;;21.80;75.40;;;;;;4894092;28;92004;-83
2022/06/16 06:19:24;;;;;;;5.22;0.70;;;22.10;72.40;;;;;;4891689;28;91912;-86
2022/06/16 06:21:58;;;;;;;6.93;0.80;;;22.30;71.40;;;;;;4898741;28;91942;-81
2022/06/16 06:24:24;;;;;;;4.88;0.50;;;22.50;71.20;;;;;;4913607;28;91375;-81
2022/06/16 06:27:32;;;;;;;3.97;0.63;;;22.40;71.40;;;;;;4912104;28;91154;-81
2022/06/16 06:29:58;;;;;;;5.72;0.95;;;23.70;68.30;;;;;;4893488;28;92267;-82
2022/06/16 06:32:25;;;;;;;5.93;0.77;;;24.20;67.30;;;;;;4893943;28;92352;-82
2022/06/16 06:34:51;;;;;;;2.13;0.50;;;24.10;66.80;;;;;;4894272;28;92747;-81
2022/06/16 06:37:22;;;;;;;5.50;0.82;;;23.90;67.90;;;;;;4893839;28;91969;-82
2022/06/16 06:39:48;;;;;;;5.47;0.75;;;23.50;67.60;;;;;;4897694;28;93218;-82
2022/06/16 06:42:14;;;;;;;5.93;0.85;;;23.30;65.40;;;;;;4894877;28;92519;-83
2022/06/16 06:44:40;;;;;;;4.43;0.65;;;22.80;69.40;;;;;;4900036;28;92001;-83
2022/06/16 06:47:06;;;;;;;9.00;1.10;;;22.20;72.80;;;;;;4900409;28;92672;-83
2022/06/16 06:49:32;;;;;;;10.82;1.35;;;21.90;78.10;;;;;;4901049;28;92023;-83
2022/06/16 06:51:58;;;;;;;7.93;1.38;;;21.40;82.40;;;;;;4901757;28;92058;-83
2022/06/16 06:54:23;;;;;;;5.22;1.02;;;20.80;88.00;;;;;;4902233;28;92083;-82
2022/06/16 06:56:51;;;;;;;6.60;0.80;;;20.60;90.40;;;;;;4901889;28;91936;-84
2022/06/16 06:59:19;;;;;;;7.13;1.45;;;20.20;87.00;;;;;;4902964;28;93509;-82
2022/06/16 07:01:46;;;;;;;9.55;1.23;;;20.00;89.50;;;;;;4903354;28;93973;-82
2022/06/16 07:04:12;;;;;;;7.05;1.00;;;19.90;91.60;;;;;;4903624;28;91953;-83
2022/06/16 07:06:38;;;;;;;6.22;1.05;;;20.20;91.80;;;;;;4898335;28;92169;-83
2022/06/16 07:09:04;;;;;;;8.15;1.00;;;21.20;90.80;;;;;;4900769;28;92447;-82
2022/06/16 07:11:30;;;;;;;3.75;0.70;;;22.90;85.30;;;;;;4903503;28;92069;-82
2022/06/16 07:13:56;;;;;;;4.60;0.63;;;24.00;77.50;;;;;;4900925;28;92012;-83
2022/06/16 07:16:22;;;;;;;5.25;0.98;;;24.30;73.30;;;;;;4899797;28;91513;-83
2022/06/16 07:18:48;;;;;;;5.47;1.10;;;24.30;73.00;;;;;;4901110;28;93155;-83
2022/06/16 07:21:15;;;;;;;4.55;0.73;;;24.80;73.30;;;;;;4900849;28;92756;-83
2022/06/16 07:23:42;;;;;;;4.55;0.80;;;25.80;69.20;;;;;;4903384;28;92870;-82
2022/06/16 07:26:08;;;;;;;4.95;0.65;;;25.90;66.50;;;;;;4897493;28;92167;-81
2022/06/16 07:28:34;;;;;;;6.15;1.10;;;26.20;67.20;;;;;;4898590;28;92070;-81
2022/06/16 07:31:00;;;;;;;4.95;1.33;;;28.00;65.40;;;;;;4900149;28;92251;-81
2022/06/16 07:33:26;;;;;;;4.20;1.35;;;31.30;55.50;;;;;;4902240;28;92095;-82
2022/06/16 07:35:53;;;;;;;5.30;0.95;;;32.90;50.90;;;;;;4897442;28;91979;-81
2022/06/16 07:38:20;;;;;;;4.55;1.48;;;33.90;49.50;;;;;;4902045;28;93237;-81
2022/06/16 07:40:46;;;;;;;8.95;1.80;;;34.80;46.40;;;;;;4899832;28;94774;-81
2022/06/16 07:43:12;;;;;;;6.55;1.17;;;36.00;44.20;;;;;;4900309;28;91548;-81
2022/06/16 07:45:39;;;;;;;9.65;1.40;;;37.00;43.70;;;;;;4897637;28;92044;-81
2022/06/16 07:48:06;;;;;;;3.60;1.90;;;38.40;42.00;;;;;;4899688;28;94240;-81
2022/06/16 07:50:36;;;;;;;5.93;2.08;;;40.10;40.90;;;;;;4899095;28;93051;-80
2022/06/16 07:53:05;;;;;;;6.25;1.33;;;40.20;38.70;;;;;;4899531;28;92055;-80
2022/06/16 07:55:31;;;;;;;6.20;1.98;;;40.20;37.70;;;;;;4904031;28;92282;-82
2022/06/16 07:57:57;;;;;;;7.60;1.92;;;39.40;40.00;;;;;;4899922;28;94210;-82
2022/06/16 08:00:26;;;;;;;3.90;1.38;;;39.50;40.30;;;;;;4896941;28;93381;-82
2022/06/16 08:02:53;;;;;;;6.55;1.88;;;39.20;39.70;;;;;;4898571;28;91987;-81
2022/06/16 08:05:19;;;;;;;4.90;1.90;;;38.60;38.80;;;;;;4901471;28;91363;-81
2022/06/16 08:07:45;;;;;;;4.32;1.67;;;38.20;39.80;;;;;;4898362;28;93560;-81
2022/06/16 08:10:15;;;;;;;4.45;1.60;;;37.50;41.60;;;;;;4902949;28;94433;-81
2022/06/16 08:12:41;;;;;;;6.32;1.65;;;36.40;42.60;;;;;;4893553;28;93077;-81
2022/06/16 08:15:07;;;;;;;6.72;1.55;;;37.80;42.40;;;;;;4897429;28;92492;-81
2022/06/16 08:17:36;;;;;;;6.28;1.70;;;38.10;40.80;;;;;;4893788;28;94132;-81
2022/06/16 08:20:03;;;;;;;5.85;2.10;;;37.00;41.50;;;;;;4902861;28;92419;-81
2022/06/16 08:22:29;;;;;;;7.13;1.80;;;36.00;42.00;;;;;;4894022;28;92416;-81
2022/06/16 08:24:55;;;;;;;6.45;1.90;;;36.00;41.80;;;;;;4902947;28;92507;-82
2022/06/16 08:27:24;;;;;;;6.88;1.70;;;35.10;42.60;;;;;;4897428;28;93036;-81
2022/06/16 08:29:50;;;;;;;6.53;1.88;;;33.50;45.10;;;;;;4893492;28;92005;-82
2022/06/16 08:32:18;;;;;;;6.82;1.30;;;32.60;46.00;;;;;;4893884;28;92340;-81
2022/06/16 08:34:44;;;;;;;6.25;1.60;;;33.90;46.00;;;;;;4899553;28;92139;-81
2022/06/16 08:37:10;;;;;;;7.88;1.52;;;34.50;42.60;;;;;;4896898;28;93058;-81
2022/06/16 08:39:36;;;;;;;4.82;1.77;;;35.30;40.00;;;;;;4904623;28;94276;-80
2022/06/16 08:42:08;;;;;;;6.35;1.88;;;35.70;41.90;;;;;;4902369;28;92132;-80
2022/06/16 08:44:47;;;;;;;8.38;2.13;;;37.70;42.20;;;;;;4901619;28;92018;-81
2022/06/16 08:47:28;;;;;;;6.15;1.77;;;39.90;38.90;;;;;;4894395;28;94743;-81
2022/06/16 08:50:03;;;;;;;4.00;1.60;;;41.70;36.40;;;;;;4889405;28;92091;-81
2022/06/16 08:52:48;;;;;;;4.53;1.38;;;40.60;36.10;;;;;;4896925;28;92190;-81
2022/06/16 08:55:21;;;;;;;6.60;2.22;;;39.70;37.70;;;;;;4892825;28;91366;-81
2022/06/16 08:57:53;;;;;;;6.28;2.00;;;40.70;37.60;;;;;;4895661;28;92548;-83
2022/06/16 09:00:23;;;;;;;5.30;2.13;;;42.00;35.90;;;;;;4895617;28;93739;-81
2022/06/16 09:03:07;;;;;;;7.88;1.58;;;40.50;37.30;;;;;;4899946;28;92730;-81
2022/06/16 09:05:47;;;;;;;6.43;2.03;;;38.90;38.50;;;;;;4895844;28;92040;-81
2022/06/16 09:08:18;;;;;;;4.88;1.92;;;38.30;40.30;;;;;;4900817;28;92420;-81
2022/06/16 09:10:59;;;;;;;7.68;2.15;;;39.10;39.00;;;;;;4901602;28;93608;-83
2022/06/16 09:14:04;;;;;;;6.30;2.97;;;40.00;40.00;;;;;;4899959;28;92004;-82
2022/06/16 09:16:59;;;;;;;4.40;2.90;;;42.40;37.00;;;;;;4846912;28;92237;-82
2022/06/16 09:19:40;;;;;;;6.50;2.78;;;42.20;36.30;;;;;;4897517;28;93904;-81
2022/06/16 09:22:17;;;;;;;7.82;3.25;;;42.00;37.70;;;;;;4894644;28;91939;-82
2022/06/16 09:24:52;;;;;;;5.03;2.47;;;43.60;36.20;;;;;;4897182;28;92082;-82
2022/06/16 09:27:20;;;;;;;;;;;42.60;36.40;;;;;;4898819;28;92886;-83
2022/06/16 09:29:58;;;;;;;5.22;2.63;;;41.90;37.00;;;;;;4898589;28;93667;-84
2022/06/16 09:32:50;;;;;;;4.68;2.38;;;41.90;38.10;;;;;;4902289;28;93999;-82
2022/06/16 09:35:29;;;;;;;5.93;2.88;;;43.20;37.70;;;;;;4902117;28;91852;-81
2022/06/16 09:38:10;;;;;;;6.88;2.90;;;44.40;35.60;;;;;;4895685;28;92358;-82
2022/06/16 09:41:02;;;;;;;5.32;2.55;;;46.30;34.20;;;;;;4888278;28;92473;-81
2022/06/16 09:43:42;;;;;;;5.43;2.53;;;44.80;33.90;;;;;;4891544;28;91598;-81
2022/06/16 09:46:40;;;;;;;6.47;2.25;;;42.70;36.60;;;;;;4897504;28;92727;-82
2022/06/16 09:49:14;;;;;;;6.68;3.20;;;44.20;36.00;;;;;;4890273;28;91392;-82
2022/06/16 09:51:45;;;;;;;6.88;2.55;;;46.10;35.00;;;;;;4898095;28;92452;-81
2022/06/16 09:54:16;;;;;;;6.07;3.33;;;46.60;33.40;;;;;;4898855;28;91818;-82
2022/06/16 09:57:13;;;;;;;9.55;3.15;;;45.10;34.10;;;;;;4898001;28;92999;-82
2022/06/16 09:59:46;;;;;;;6.70;2.80;;;43.20;35.40;;;;;;4892168;28;92852;-82
2022/06/16 10:02:25;;;;;;;7.15;2.53;;;41.40;37.90;;;;;;4897725;28;92782;-84
2022/06/16 10:04:53;;;;;;;5.68;3.00;;;42.60;38.00;;;;;;4897788;28;92235;-82
2022/06/16 10:07:37;;;;;;;6.78;3.58;;;43.40;36.80;;;;;;4901864;28;91598;-83
2022/06/16 10:10:21;;;;;;;6.03;3.88;;;43.50;35.90;;;;;;4901831;28;92292;-82
2022/06/16 10:13:14;;;;;;;6.82;3.28;;;41.60;35.40;;;;;;4893547;28;93187;-82
2022/06/16 10:15:51;;;;;;;8.00;2.38;;;39.40;39.40;;;;;;4894749;28;92094;-82
2022/06/16 10:18:17;;;;;;;8.20;2.22;;;38.10;39.90;;;;;;4899378;28;92107;-83
2022/06/16 10:20:44;;;;;;;6.32;2.63;;;37.00;40.80;;;;;;4894485;28;92080;-82
2022/06/16 10:23:21;;;;;;;6.55;2.63;;;36.10;44.30;;;;;;4899780;28;95515;-82
2022/06/16 10:25:56;;;;;;;6.32;2.72;;;36.00;45.60;;;;;;4896949;28;93173;-82
2022/06/16 10:28:44;;;;;;;6.68;2.50;;;35.90;45.90;;;;;;4901092;28;92661;-82
2022/06/16 10:31:17;;;;;;;5.90;2.20;;;35.80;45.80;;;;;;4855993;28;92149;-82
2022/06/16 10:33:56;;;;;;;7.07;2.40;;;34.70;46.00;;;;;;4892943;28;92607;-82
2022/06/16 10:36:25;;;;;;;6.38;2.65;;;34.10;46.70;;;;;;4894390;28;93577;-82
2022/06/16 10:39:16;;;;;;;8.43;2.72;;;33.60;47.60;;;;;;4897821;28;91638;-83
2022/06/16 10:42:01;;;;;;;10.45;2.83;;;33.30;49.80;;;;;;4897842;28;91834;-82
2022/06/16 10:44:30;;;;;;;5.63;2.08;;;33.20;49.60;;;;;;4893803;28;93837;-82
2022/06/16 10:47:03;;;;;;;7.18;2.03;;;33.60;48.90;;;;;;4900101;28;91969;-82
2022/06/16 10:49:33;;;;;;;6.57;2.25;;;33.70;48.20;;;;;;4894139;28;93076;-83
2022/06/16 10:52:05;;;;;;;8.07;2.30;;;33.50;49.90;;;;;;4887983;28;92093;-82
2022/06/16 10:54:37;;;;;;;7.53;2.58;;;33.40;47.20;;;;;;4895381;28;93217;-82
2022/06/16 10:57:29;;;;;;;4.30;2.22;;;33.00;50.00;;;;;;4888365;28;92077;-82
2022/06/16 11:00:26;;;;;;;5.15;2.28;;;32.80;50.80;;;;;;4887103;28;92109;-82
2022/06/16 11:02:58;;;;;;;6.45;2.00;;;33.00;48.20;;;;;;4897044;28;91997;-83
2022/06/16 11:05:25;;;;;;;8.27;2.00;;;32.80;51.30;;;;;;4900775;28;92725;-82
2022/06/16 11:07:51;;;;;;;6.28;1.90;;;32.60;50.30;;;;;;4891695;28;92311;-82
2022/06/16 11:10:33;;;;;;;6.15;1.80;;;32.40;50.20;;;;;;4900987;28;91975;-82
2022/06/16 11:12:58;;;;;;;;;;;32.10;51.50;;;;;;4900569;28;92102;-82
2022/06/16 11:15:40;;;;;;;6.10;2.00;;;31.80;51.30;;;;;;4901738;28;93761;-82
2022/06/16 11:18:11;;;;;;;4.25;1.98;;;31.40;52.10;;;;;;4888465;28;94003;-82
2022/06/16 11:20:41;;;;;;;5.75;2.38;;;31.20;52.50;;;;;;4901299;28;91941;-82
2022/06/16 11:23:22;;;;;;;5.07;1.58;;;30.90;52.70;;;;;;4900673;28;92039;-82
2022/06/16 11:26:09;;;;;;;5.85;1.80;;;30.50;54.20;;;;;;4900251;28;91986;-82
2022/06/16 11:28:43;;;;;;;5.07;1.70;;;30.20;54.20;;;;;;4899495;28;92921;-82
2022/06/16 11:31:19;;;;;;;7.30;1.88;;;30.10;55.20;;;;;;4901078;28;92225;-82
2022/06/16 11:37:08;;;;;;;3.88;1.92;;;30.00;56.20;;;;;;4904019;28;92355;-82
2022/06/16 11:39:43;;;;;;;10.30;1.83;;;29.90;54.80;;;;;;4895375;28;93852;-83
2022/06/16 11:42:41;;;;;;;7.60;2.22;;;29.80;56.40;;;;;;4903282;28;93088;-82
2022/06/16 11:45:25;;;;;;;6.43;1.88;;;29.60;56.90;;;;;;4901896;28;91976;-83
2022/06/16 11:48:07;;;;;;;4.38;1.58;;;29.50;57.80;;;;;;4905483;28;93735;-81
2022/06/16 11:50:36;;;;;;;9.77;1.80;;;29.30;57.80;;;;;;4901434;28;91972;-82
2022/06/16 11:53:14;;;;;;;6.72;1.60;;;29.20;57.60;;;;;;4907510;28;92031;-82
2022/06/16 11:55:45;;;;;;;6.05;1.50;;;28.90;57.00;;;;;;4908692;28;91462;-82
2022/06/16 11:58:32;;;;;;;7.15;1.45;;;28.90;57.90;;;;;;4910056;28;92902;-81
2022/06/16 12:01:14;;;;;;;5.25;1.60;;;28.80;58.00;;;;;;4908256;28;92049;-82
2022/06/16 12:04:19;;;;;;;4.68;1.67;;;28.90;57.50;;;;;;4890329;28;92529;-82
2022/06/16 12:07:06;;;;;;;7.80;2.30;;;28.90;58.50;;;;;;4866303;28;92167;-83
2022/06/16 12:09:49;;;;;;;4.85;1.52;;;28.90;60.40;;;;;;4901783;28;94658;-82
2022/06/16 12:12:45;;;;;;;6.15;2.28;;;28.90;56.50;;;;;;4901483;28;93844;-82
2022/06/16 12:15:55;;;;;;;6.70;2.03;;;28.70;59.10;;;;;;4903042;28;92216;-82
2022/06/16 12:18:36;;;;;;;3.65;1.60;;;28.30;59.30;;;;;;4826408;29;92102;-82
2022/06/16 12:21:20;;;;;;;4.30;2.10;;;27.20;64.10;;;;;;4824562;29;92258;-83
2022/06/16 12:24:24;;;;;;;2.40;1.00;;;25.70;67.90;;;;;;4881939;28;92157;-83
2022/06/16 12:27:01;;;;;;;4.28;1.00;;;25.20;66.60;;;;;;4893516;28;91561;-82
2022/06/16 12:29:57;;;;;;;3.97;1.20;;;25.60;66.80;;;;;;4891233;28;91401;-82
2022/06/16 12:32:34;;;;;;;2.58;0.70;;;25.40;66.10;;;;;;4902951;28;92001;-82
2022/06/16 12:35:07;;;;;;;1.63;0.88;;;25.00;64.60;;;;;;4896035;28;92060;-82
2022/06/16 12:37:41;;;;;;;2.80;0.80;;;25.10;65.90;;;;;;4903290;28;92998;-82
2022/06/16 12:40:07;;;;;;;2.33;0.60;;;24.80;67.30;;;;;;4897991;28;92153;-82
2022/06/16 12:42:39;;;;;;;1.90;0.60;;;25.00;69.10;;;;;;4903073;28;92700;-83
2022/06/16 12:45:08;;;;;;;1.80;0.68;;;25.30;64.70;;;;;;4900901;28;92138;-82
2022/06/16 12:47:57;;;;;;;2.72;0.70;;;25.70;65.40;;;;;;4888029;28;92379;-82
2022/06/16 12:50:43;;;;;;;2.95;0.80;;;25.80;65.60;;;;;;4890541;28;93245;-81
2022/06/16 12:53:19;;;;;;;3.20;1.08;;;26.60;67.70;;;;;;4892218;28;92294;-84
2022/06/16 12:55:56;;;;;;;3.35;0.65;;;27.40;63.70;;;;;;4895956;28;91329;-83
2022/06/16 12:58:36;;;;;;;3.20;0.77;;;27.50;61.70;;;;;;4890067;28;92114;-84
2022/06/16 13:01:05;;;;;;;5.35;1.05;;;26.50;63.70;;;;;;4890713;28;91939;-83
2022/06/16 13:03:55;;;;;;;3.40;1.02;;;25.90;64.00;;;;;;4894744;28;93023;-82
2022/06/16 13:06:22;;;;;;;1.80;0.60;;;25.40;67.70;;;;;;4903583;28;93820;-82
2022/06/16 13:08:53;;;;;;;2.88;0.88;;;26.30;67.60;;;;;;4903488;28;92182;-82
2022/06/16 13:11:22;;;;;;;4.32;1.25;;;26.60;65.20;;;;;;4903972;28;91738;-82
2022/06/16 13:13:56;;;;;;;2.70;0.98;;;26.90;63.50;;;;;;4905011;28;92320;-82
2022/06/16 13:16:26;;;;;;;4.30;1.23;;;26.90;63.10;;;;;;4897721;28;92489;-82
2022/06/16 13:18:57;;;;;;;3.35;1.10;;;26.50;64.30;;;;;;4897373;28;92299;-82
2022/06/16 13:21:31;;;;;;;4.80;1.70;;;25.80;67.60;;;;;;4897727;28;91441;-82
2022/06/16 13:24:34;;;;;;;3.60;1.35;;;25.90;69.60;;;;;;4894665;28;92437;-82
2022/06/16 13:27:21;;;;;;;4.85;1.27;;;26.50;66.70;;;;;;4876325;28;92158;-83
2022/06/16 13:29:50;;;;;;;4.03;1.52;;;26.90;67.00;;;;;;4899351;28;92921;-83
2022/06/16 13:32:47;;;;;;;3.70;1.35;;;27.10;66.70;;;;;;4902425;28;92071;-82
2022/06/16 13:35:13;;;;;;;3.88;1.60;;;27.10;66.30;;;;;;4817295;28;93000;-82
2022/06/16 13:37:41;;;;;;;4.40;2.08;;;27.10;66.40;;;;;;4898610;28;92817;-82
2022/06/16 13:40:07;;;;;;;3.03;1.33;;;27.10;67.00;;;;;;4897293;28;91592;-83
2022/06/16 13:42:51;;;;;;;3.45;1.20;;;26.70;68.70;;;;;;4900787;28;92138;-81
2022/06/16 13:45:29;;;;;;;4.35;1.35;;;26.70;70.50;;;;;;4903287;28;95420;-82
2022/06/16 13:48:11;;;;;;;3.80;1.80;;;26.80;70.30;;;;;;4902711;28;91859;-83
2022/06/16 13:50:40;;;;;;;4.47;1.17;;;26.80;69.30;;;;;;4897283;28;92016;-82
2022/06/16 13:53:06;;;;;;;4.70;1.27;;;26.40;70.20;;;;;;4902158;28;92279;-81
2022/06/16 13:55:37;;;;;;;7.18;1.63;;;25.90;73.70;;;;;;4900347;28;94930;-82
2022/06/16 13:58:27;;;;;;;5.35;1.33;;;25.80;72.10;;;;;;4901768;28;92794;-82
2022/06/16 14:01:17;;;;;;;6.40;1.55;;;25.50;74.70;;;;;;4898232;28;91667;-82
2022/06/16 14:03:56;;;;;;;4.75;1.67;;;25.50;73.60;;;;;;4904460;28;91864;-82
2022/06/16 14:07:00;;;;;;;3.88;1.40;;;25.60;73.90;;;;;;4898016;28;92582;-82
2022/06/16 14:09:29;;;;;;;6.70;1.65;;;25.90;74.00;;;;;;4895674;28;92183;-83
2022/06/16 14:12:04;;;;;;;3.70;1.20;;;25.80;74.30;;;;;;4902988;28;92020;-82
2022/06/16 14:14:56;;;;;;;3.88;1.45;;;26.30;74.10;;;;;;4900151;28;91222;-82
2022/06/16 14:17:32;;;;;;;4.38;1.75;;;26.40;72.00;;;;;;4902838;28;91996;-82
2022/06/16 14:20:18;;;;;;;4.70;1.77;;;26.90;71.20;;;;;;4904445;28;91995;-81
2022/06/16 14:22:46;;;;;;;3.85;1.45;;;27.00;70.30;;;;;;4904305;28;93196;-82
2022/06/16 14:25:33;;;;;;;4.40;1.52;;;27.40;71.40;;;;;;4899146;28;92056;-82
2022/06/16 14:28:03;;;;;;;5.47;1.92;;;27.80;71.00;;;;;;4896791;28;93069;-84
2022/06/16 14:30:50;;;;;;;7.05;1.77;;;27.80;71.00;;;;;;4898607;28;92204;-82
2022/06/16 14:33:35;;;;;;;5.68;2.08;;;27.50;71.60;;;;;;4890637;28;91976;-83
2022/06/16 14:36:29;;;;;;;5.38;2.35;;;27.10;73.40;;;;;;4891738;28;92371;-82
2022/06/16 14:39:21;;;;;;;6.43;1.92;;;27.00;73.80;;;;;;4902240;28;92440;-82
2022/06/16 14:42:16;;;;;;;4.90;2.10;;;26.90;74.60;;;;;;4901232;28;92466;-82
2022/06/16 14:45:21;;;;;;;4.00;1.80;;;26.80;75.10;;;;;;4897591;28;92061;-82
2022/06/16 14:48:04;;;;;;;4.40;1.63;;;27.00;74.50;;;;;;4894603;28;92071;-82
2022/06/16 14:50:46;;;;;;;5.65;1.67;;;27.10;74.40;;;;;;4901778;28;93262;-83
2022/06/16 14:53:53;;;;;;;8.00;2.30;;;27.00;73.60;;;;;;4900719;28;92710;-81
2022/06/16 14:56:21;;;;;;;6.50;2.30;;;27.10;72.70;;;;;;4899257;28;92026;-82
2022/06/16 14:58:49;;;;;;;4.30;1.92;;;27.20;72.60;;;;;;4892206;28;92140;-82
2022/06/16 15:01:18;;;;;;;4.57;1.75;;;27.40;72.20;;;;;;4900181;28;92063;-82
2022/06/16 15:03:47;;;;;;;4.85;2.22;;;27.20;71.40;;;;;;4898749;28;92047;-82
2022/06/16 15:06:15;;;;;;;4.95;2.08;;;27.30;71.10;;;;;;4899815;28;92351;-83
2022/06/16 15:08:43;;;;;;;8.02;2.20;;;27.60;73.50;;;;;;4904433;28;91427;-83
2022/06/16 15:11:13;;;;;;;5.90;2.58;;;27.60;71.20;;;;;;4903104;28;93515;-82
2022/06/16 15:13:44;;;;;;;6.25;2.60;;;27.70;71.00;;;;;;4903327;28;91735;-82
2022/06/16 15:18:10;;;;;;;6.82;2.15;;;27.70;70.80;;;;;;4903321;28;93116;-82
2022/06/16 15:18:59;;;;;;;4.85;2.30;;;27.60;68.00;;;;;;4902773;28;92098;-82
2022/06/16 15:21:25;;;;;;;4.63;2.45;;;27.50;69.10;;;;;;4903533;28;92111;-82
2022/06/16 15:23:54;;;;;;;7.50;2.17;;;27.40;70.60;;;;;;4903341;28;93142;-83
2022/06/16 15:26:22;;;;;;;5.68;1.73;;;27.40;67.30;;;;;;4903219;28;92124;-82
2022/06/16 15:28:53;;;;;;;4.07;2.03;;;27.40;70.40;;;;;;4903266;28;92483;-82
2022/06/16 15:31:42;;;;;;;7.50;2.25;;;27.40;69.00;;;;;;4893768;28;93783;-82
2022/06/16 15:36:57;;;;;;;3.88;1.58;;;27.70;67.80;;;;;;4902804;28;92341;-83
2022/06/16 15:39:24;;;;;;;6.43;1.60;;;27.80;65.20;;;;;;4888697;28;91949;-83
2022/06/16 15:41:55;;;;;;;5.53;1.98;;;27.70;66.50;;;;;;4899200;28;93661;-82
2022/06/16 15:44:23;;;;;;;9.23;2.25;;;27.80;63.40;;;;;;4903594;28;92883;-82
2022/06/16 15:46:54;;;;;;;3.80;1.40;;;27.90;60.90;;;;;;4901985;28;92245;-82
2022/06/16 15:49:58;;;;;;;5.53;1.80;;;27.90;62.00;;;;;;4902731;28;92017;-82
2022/06/16 15:52:31;;;;;;;5.20;1.67;;;28.20;62.30;;;;;;4890876;28;92799;-83
2022/06/16 15:55:06;;;;;;;5.20;1.50;;;28.40;58.00;;;;;;4890387;28;92152;-82
2022/06/16 15:57:33;;;;;;;5.50;2.10;;;28.30;59.00;;;;;;4904265;28;91887;-82
2022/06/16 16:00:18;;;;;;;4.40;1.58;;;28.50;58.60;;;;;;4903031;28;91222;-83
2022/06/16 16:02:46;;;;;;;4.10;1.88;;;28.60;58.50;;;;;;4903314;28;92199;-82
2022/06/16 16:05:16;;;;;;;5.93;1.77;;;28.70;58.40;;;;;;4903184;28;92160;-82
2022/06/16 16:07:42;;;;;;;4.57;1.75;;;28.60;58.50;;;;;;4901075;28;93019;-82
2022/06/16 16:10:13;;;;;;;7.75;2.40;;;28.60;56.00;;;;;;4902168;28;93027;-84
2022/06/16 16:12:39;;;;;;;5.88;1.60;;;28.60;56.50;;;;;;4900627;28;92390;-83
2022/06/16 16:15:05;;;;;;;4.22;1.73;;;28.70;57.10;;;;;;4901925;28;93446;-82
2022/06/16 16:17:45;;;;;;;5.85;1.58;;;28.90;56.20;;;;;;4901331;28;91886;-82
2022/06/16 16:20:25;;;;;;;4.40;1.60;;;28.90;56.20;;;;;;4902804;28;91956;-83
2022/06/16 16:23:17;;;;;;;5.57;1.42;;;28.80;54.60;;;;;;4900034;28;92405;-83
2022/06/16 16:25:52;;;;;;;6.47;2.10;;;28.50;55.30;;;;;;4890274;28;91309;-83